Airfield :
LOGIN :

Register | Disclaimer

   EN    FR    IT 

 










Legend :    VFR   Marginal VFR   IFR   Intensive IFR   Very Intensive IFR
Visi :
Ceiling :
>= 8 km
>= 3000ft
5 to 8 km
1000 to 3000 ft
1500m to 5 km
500 to 1000 ft
800 to 1500m
200 to 500 ft
< 800m
< 200 ft
Symbols :   Thunderstorms  Fog  Heavy snow  Heavy precipitations  Wind > 20 kt
SIGMETs :     Misc.  Thunderstorms  Icing  Turbulence  Mountain Waves  Volcanic Ashes






- Airport Elevation : 505 ft
- IATA code : SXB


LFST - Strasbourg

CURRENT METAR :
  • 310630Z AUTO 04009KT 9999 4200 NSC 15/05 Q1020 NOSIG

EXPIRED METARs :
  • 310600Z AUTO 03009KT 9999 3700 NSC 15/05 Q1019 NOSIG
  • 310530Z AUTO 02009KT 9999 4600 NSC 13/05 Q1019 NOSIG
  • 310500Z AUTO 35006KT 320V020 CAVOK 12/05 Q1019 NOSIG
  • 310430Z AUTO 36005KT CAVOK 11/04 Q1019 NOSIG
  • 310400Z AUTO 35006KT CAVOK 10/04 Q1019 NOSIG

TAF TAF LFST
Valid from the 31 at 06:00 until the 01 at 06:00 UTC


310500Z 3106/0106 03008KT CAVOK



MET'MAP, your aeronautical weather chart ! - Copyright ORBIFLY December 2007 - Disclaimer

ORBIFLY MET'MAP TEAM :

Programming & Development : Alexandra Zaïnal
Concept & original design : Baudouin d'Aumeries
Assistance for programming : Marc-Olivier Méhu
Technical & hardware support : Manuel Goepfert

Contact : metmap@orbifly.com




SOURCES & CREDITS :

   NOAA